createdAt,value
2019-06-15T00:00:05.825Z,80.86
2019-06-15T00:01:05.820Z,80.66
2019-06-15T00:02:05.870Z,81.34
2019-06-15T00:03:05.935Z,80.86
2019-06-15T00:04:05.976Z,81.34
2019-06-15T00:05:05.991Z,80.76
2019-06-15T00:06:06.062Z,80.76
2019-06-15T00:07:06.116Z,80.66
2019-06-15T00:08:06.182Z,81.15
2019-06-15T00:09:06.185Z,81.53
2019-06-15T00:10:06.240Z,81.44
2019-06-15T00:11:06.285Z,81.73
2019-06-15T00:12:06.323Z,81.53
2019-06-15T00:13:06.386Z,82.21
2019-06-15T00:14:06.448Z,82.07
2019-06-15T00:15:06.478Z,82.36
2019-06-15T00:16:06.485Z,82.75
2019-06-15T00:17:06.564Z,82.56
2019-06-15T00:18:06.601Z,82.56
2019-06-15T00:19:06.690Z,82.84
2019-06-15T00:20:06.699Z,83.62
2019-06-15T00:21:06.720Z,83.91
2019-06-15T00:22:06.784Z,83.91
2019-06-15T00:23:06.870Z,84.39
2019-06-15T00:24:06.878Z,84.20
2019-06-15T00:25:06.940Z,84.20
2019-06-15T00:26:06.966Z,84.48
2019-06-15T00:27:07.033Z,85.06
2019-06-15T00:28:07.051Z,85.26
2019-06-15T00:29:07.126Z,84.97
2019-06-15T00:30:07.170Z,85.36
2019-06-15T00:31:07.228Z,84.97
2019-06-15T00:32:07.252Z,85.45
2019-06-15T00:33:07.317Z,85.74
2019-06-15T00:34:07.341Z,85.36
2019-06-15T00:35:07.397Z,85.26
2019-06-15T00:36:07.426Z,86.03
2019-06-15T00:37:07.493Z,85.64
2019-06-15T00:38:07.536Z,85.84
2019-06-15T00:39:07.555Z,85.06
2019-06-15T00:40:07.606Z,84.74
2019-06-15T00:41:07.667Z,84.88
2019-06-15T00:42:07.719Z,85.16
2019-06-15T00:43:07.755Z,84.58
2019-06-15T00:44:07.818Z,84.97
2019-06-15T00:45:07.844Z,84.97
2019-06-15T00:46:07.887Z,84.58
2019-06-15T00:47:07.952Z,84.78
2019-06-15T00:48:08.025Z,84.48
2019-06-15T00:49:08.034Z,84.58
2019-06-15T00:50:08.064Z,84.58
2019-06-15T00:51:08.110Z,84.20
2019-06-15T00:52:08.168Z,84.58
2019-06-15T00:53:08.185Z,84.20
2019-06-15T00:54:08.235Z,83.23
2019-06-15T00:55:08.279Z,83.23
2019-06-15T00:56:08.345Z,83.62
2019-06-15T00:57:08.378Z,83.52
2019-06-15T00:58:08.437Z,84.10
2019-06-15T00:59:08.474Z,83.62
2019-06-15T01:00:08.526Z,83.42
2019-06-15T01:01:08.574Z,84.00
2019-06-15T01:02:08.601Z,84.20
2019-06-15T01:03:08.666Z,84.00
2019-06-15T01:04:08.707Z,83.91
2019-06-15T01:05:08.752Z,83.91
2019-06-15T01:06:08.793Z,84.48
2019-06-15T01:07:08.851Z,83.72
2019-06-15T01:08:08.880Z,84.00
2019-06-15T01:09:08.919Z,84.58
2019-06-15T01:10:08.955Z,84.30
2019-06-15T01:11:09.024Z,84.58
2019-06-15T01:12:09.045Z,84.68
2019-06-15T01:13:09.123Z,84.00
2019-06-15T01:14:09.231Z,84.00
2019-06-15T01:15:09.200Z,84.00
2019-06-15T01:16:09.230Z,84.88
2019-06-15T01:17:09.281Z,85.26
2019-06-15T01:18:09.349Z,85.06
2019-06-15T01:19:09.393Z,85.64
2019-06-15T01:20:09.441Z,85.55
2019-06-15T01:21:09.469Z,85.70
2019-06-15T01:22:09.518Z,85.31
2019-06-15T01:23:09.563Z,86.08
2019-06-15T01:24:09.610Z,86.18
2019-06-15T01:25:09.657Z,86.57
2019-06-15T01:26:09.717Z,86.66
2019-06-15T01:27:09.730Z,87.05
2019-06-15T01:28:09.796Z,87.24
2019-06-15T01:29:09.869Z,86.86
2019-06-15T01:30:09.872Z,87.24
2019-06-15T01:31:09.975Z,87.05
2019-06-15T01:32:09.950Z,87.53
2019-06-15T01:33:10.029Z,87.73
2019-06-15T01:34:10.085Z,87.92
2019-06-15T01:35:10.102Z,88.31
2019-06-15T01:36:10.141Z,88.11
2019-06-15T01:37:10.195Z,88.21
2019-06-15T01:38:10.251Z,88.31
2019-06-15T01:39:10.302Z,88.21
2019-06-15T01:40:10.341Z,88.40
2019-06-15T01:41:10.405Z,88.69
2019-06-15T01:42:10.457Z,89.07
2019-06-15T01:43:10.486Z,88.89
2019-06-15T01:44:10.532Z,89.37
2019-06-15T01:45:10.627Z,89.17
2019-06-15T01:46:10.618Z,90.05
2019-06-15T01:47:10.664Z,90.43
2019-06-15T01:48:10.705Z,90.33
2019-06-15T01:49:10.756Z,90.62
2019-06-15T01:50:10.776Z,91.20
2019-06-15T01:51:10.850Z,91.20
2019-06-15T01:52:10.899Z,91.11
2019-06-15T01:53:10.917Z,91.97
2019-06-15T01:54:10.962Z,91.88
2019-06-15T01:55:20.582Z,91.97
2019-06-15T01:56:11.064Z,92.65
2019-06-15T01:57:11.118Z,92.74
2019-06-15T01:58:11.162Z,92.74
2019-06-15T01:59:11.211Z,93.13
2019-06-15T02:00:11.252Z,93.42
2019-06-15T02:01:11.316Z,93.04
2019-06-15T02:02:11.378Z,93.32
2019-06-15T02:03:11.376Z,93.52
2019-06-15T02:04:11.433Z,94.38
2019-06-15T02:05:11.472Z,94.48
2019-06-15T02:06:11.532Z,94.29
2019-06-15T02:07:11.548Z,94.87
2019-06-15T02:08:11.631Z,94.48
2019-06-15T02:09:11.661Z,94.48
2019-06-15T02:10:11.695Z,94.92
2019-06-15T02:11:11.739Z,94.82
2019-06-15T02:12:11.802Z,95.06
2019-06-15T02:13:11.816Z,94.82
2019-06-15T02:14:11.883Z,95.11
2019-06-15T02:15:11.924Z,95.01
2019-06-15T02:16:11.964Z,95.35
2019-06-15T02:17:11.989Z,94.92
2019-06-15T02:18:12.062Z,94.96
2019-06-15T02:19:12.115Z,95.25
2019-06-15T02:20:12.133Z,95.40
2019-06-15T02:21:12.187Z,95.11
2019-06-15T02:22:12.246Z,95.21
2019-06-15T02:23:12.277Z,95.79
2019-06-15T02:24:12.334Z,95.79
2019-06-15T02:25:12.378Z,95.79
2019-06-15T02:26:12.425Z,95.69
2019-06-15T02:27:12.490Z,95.79
2019-06-15T02:28:12.505Z,94.92
2019-06-15T02:29:12.540Z,94.82
2019-06-15T02:30:12.623Z,95.01
2019-06-15T02:31:12.650Z,95.11
2019-06-15T02:32:12.727Z,95.50
2019-06-15T02:33:12.750Z,95.59
2019-06-15T02:34:12.779Z,95.40
2019-06-15T02:35:12.828Z,95.59
2019-06-15T02:36:12.886Z,95.40
2019-06-15T02:37:12.943Z,94.82
2019-06-15T02:38:12.974Z,95.21
2019-06-15T02:39:13.013Z,94.73
2019-06-15T02:40:13.059Z,95.11
2019-06-15T02:41:13.089Z,95.59
2019-06-15T02:42:13.129Z,94.63
2019-06-15T02:43:13.194Z,94.92
2019-06-15T02:44:13.230Z,94.63
2019-06-15T02:45:13.303Z,94.43
2019-06-15T02:46:13.328Z,93.95
2019-06-15T02:47:13.367Z,94.15
2019-06-15T02:48:13.454Z,94.05
2019-06-15T02:49:13.495Z,94.15
2019-06-15T02:50:13.505Z,94.15
2019-06-15T02:51:13.551Z,94.05
2019-06-15T02:52:13.586Z,94.63
2019-06-15T02:53:13.639Z,94.34
2019-06-15T02:54:13.698Z,94.82
2019-06-15T02:55:13.745Z,94.43
2019-06-15T02:56:13.782Z,94.43
2019-06-15T02:57:13.812Z,93.57
2019-06-15T02:58:13.880Z,94.05
2019-06-15T02:59:13.920Z,93.47
2019-06-15T03:00:13.981Z,93.66
2019-06-15T03:01:14.019Z,94.34
2019-06-15T03:02:14.063Z,93.76
2019-06-15T03:03:14.089Z,93.76
2019-06-15T03:04:14.133Z,93.57
2019-06-15T03:05:14.178Z,93.95
2019-06-15T03:06:14.237Z,94.05
2019-06-15T03:07:14.268Z,93.57
2019-06-15T03:08:14.331Z,93.66
2019-06-15T03:09:14.349Z,93.66
2019-06-15T03:10:14.396Z,93.47
2019-06-15T03:11:14.481Z,93.47
2019-06-15T03:12:14.499Z,93.57
2019-06-15T03:13:14.576Z,93.57
2019-06-15T03:14:14.588Z,93.66
2019-06-15T03:15:14.640Z,94.15
2019-06-15T03:16:14.665Z,93.28
2019-06-15T03:17:14.721Z,93.18
2019-06-15T03:18:14.802Z,92.80
2019-06-15T03:19:14.821Z,92.89
2019-06-15T03:20:14.885Z,92.89
2019-06-15T03:21:14.912Z,93.47
2019-06-15T03:22:14.985Z,93.37
2019-06-15T03:23:15.006Z,93.28
2019-06-15T03:24:15.041Z,93.47
2019-06-15T03:25:15.111Z,93.08
2019-06-15T03:26:15.145Z,93.57
2019-06-15T03:27:15.190Z,93.37
2019-06-15T03:28:15.239Z,93.95
2019-06-15T03:29:15.280Z,94.05
2019-06-15T03:30:15.313Z,94.43
2019-06-15T03:31:15.371Z,94.34
2019-06-15T03:32:15.404Z,94.43
2019-06-15T03:33:15.444Z,94.82
2019-06-15T03:34:15.496Z,94.43
2019-06-15T03:35:15.570Z,95.16
2019-06-15T03:36:15.589Z,94.96
2019-06-15T03:37:15.617Z,95.36
2019-06-15T03:38:15.657Z,95.06
2019-06-15T03:39:15.749Z,94.96
2019-06-15T03:40:15.772Z,95.54
2019-06-15T03:41:15.814Z,95.64
2019-06-15T03:42:15.838Z,95.64
2019-06-15T03:43:15.925Z,96.03
2019-06-15T03:44:15.940Z,96.03
2019-06-15T03:45:16.028Z,95.93
2019-06-15T03:46:16.043Z,96.22
2019-06-15T03:47:16.081Z,96.51
2019-06-15T03:48:16.132Z,96.12
2019-06-15T03:49:16.167Z,96.70
2019-06-15T03:50:16.197Z,96.70
2019-06-15T03:51:16.254Z,96.89
2019-06-15T03:52:16.304Z,96.89
2019-06-15T03:53:16.328Z,97.28
2019-06-15T03:54:16.384Z,97.19
2019-06-15T03:55:16.430Z,97.19
2019-06-15T03:56:21.537Z,96.89
2019-06-15T03:57:16.535Z,97.09
2019-06-15T03:58:16.554Z,97.57
2019-06-15T03:59:16.600Z,97.28
2019-06-15T04:00:16.673Z,97.28
2019-06-15T04:01:16.696Z,97.28
2019-06-15T04:02:16.734Z,97.38
2019-06-15T04:03:16.826Z,97.67
2019-06-15T04:04:16.865Z,97.77
2019-06-15T04:05:16.927Z,98.05
2019-06-15T04:06:16.911Z,97.67
2019-06-15T04:07:16.969Z,97.67
2019-06-15T04:08:17.010Z,96.89
2019-06-15T04:09:17.027Z,96.99
2019-06-15T04:10:17.120Z,97.04
2019-06-15T04:11:17.143Z,97.47
2019-06-15T04:12:17.185Z,97.24
2019-06-15T04:13:17.271Z,97.33
2019-06-15T04:14:17.276Z,97.24
2019-06-15T04:15:17.352Z,97.33
2019-06-15T04:16:17.369Z,97.62
2019-06-15T04:17:17.430Z,96.56
2019-06-15T04:18:17.465Z,97.04
2019-06-15T04:19:17.513Z,97.33
2019-06-15T04:20:17.541Z,97.24
2019-06-15T04:21:17.585Z,96.75
2019-06-15T04:22:17.641Z,97.04
2019-06-15T04:23:17.677Z,97.04
2019-06-15T04:24:17.727Z,97.33
2019-06-15T04:25:17.770Z,97.42
2019-06-15T04:26:17.847Z,97.24
2019-06-15T04:27:17.853Z,97.62
2019-06-15T04:28:17.903Z,97.24
2019-06-15T04:29:17.941Z,97.47
2019-06-15T04:30:18.047Z,97.62
2019-06-15T04:31:18.030Z,97.81
2019-06-15T04:32:18.080Z,97.24
2019-06-15T04:33:18.146Z,97.52
2019-06-15T04:34:18.149Z,97.42
2019-06-15T04:35:18.223Z,97.62
2019-06-15T04:36:18.271Z,97.81
2019-06-15T04:37:18.323Z,97.42
2019-06-15T04:38:18.340Z,97.91
2019-06-15T04:39:18.387Z,97.91
2019-06-15T04:40:18.490Z,97.52
2019-06-15T04:41:18.502Z,97.62
2019-06-15T04:42:18.531Z,97.52
2019-06-15T04:43:18.571Z,98.20
2019-06-15T04:44:18.633Z,98.29
2019-06-15T04:45:18.667Z,98.20
2019-06-15T04:46:18.714Z,97.81
2019-06-15T04:47:18.745Z,98.29
2019-06-15T04:48:18.790Z,97.91
2019-06-15T04:49:18.833Z,98.10
2019-06-15T04:50:18.887Z,98.10
2019-06-15T04:51:18.951Z,98.00
2019-06-15T04:52:18.985Z,98.00
2019-06-15T04:53:19.017Z,98.10
2019-06-15T04:54:19.067Z,97.91
2019-06-15T04:55:19.100Z,97.42
2019-06-15T04:56:19.159Z,97.62
2019-06-15T04:57:19.193Z,97.62
2019-06-15T04:58:19.223Z,97.04
2019-06-15T04:59:19.312Z,97.81
2019-06-15T05:00:19.352Z,97.72
2019-06-15T05:01:19.363Z,97.42
2019-06-15T05:02:19.453Z,97.91
2019-06-15T05:03:19.449Z,98.29
2019-06-15T05:04:19.508Z,98.68
2019-06-15T05:05:19.539Z,98.87
2019-06-15T05:06:19.579Z,98.58
2019-06-15T05:07:19.649Z,98.29
2019-06-15T05:08:19.682Z,98.58
2019-06-15T05:09:19.727Z,99.26
2019-06-15T05:10:19.762Z,99.26
2019-06-15T05:11:19.819Z,98.97
2019-06-15T05:12:19.861Z,98.77
2019-06-15T05:13:19.907Z,98.49
2019-06-15T05:14:19.932Z,98.97
2019-06-15T05:15:19.979Z,98.39
2019-06-15T05:16:20.042Z,98.58
2019-06-15T05:17:20.065Z,99.35
2019-06-15T05:18:20.151Z,98.58
2019-06-15T05:19:20.176Z,98.29
2019-06-15T05:20:20.217Z,98.87
2019-06-15T05:21:20.255Z,99.07
2019-06-15T05:22:20.304Z,98.77
2019-06-15T05:23:20.362Z,98.68
2019-06-15T05:24:20.406Z,98.49
2019-06-15T05:25:20.442Z,99.07
2019-06-15T05:26:20.476Z,98.97
2019-06-15T05:27:20.505Z,98.00
2019-06-15T05:28:20.562Z,98.39
2019-06-15T05:29:20.617Z,98.29
2019-06-15T05:30:20.659Z,98.68
2019-06-15T05:31:20.699Z,98.49
2019-06-15T05:32:20.754Z,98.87
2019-06-15T05:33:20.808Z,98.49
2019-06-15T05:34:20.832Z,98.58
2019-06-15T05:35:23.515Z,98.58
2019-06-15T05:36:20.953Z,99.02
2019-06-15T05:37:20.952Z,99.07
2019-06-15T05:38:21.022Z,98.92
2019-06-15T05:39:21.050Z,99.02
2019-06-15T05:40:21.136Z,99.02
2019-06-15T05:41:21.128Z,98.82
2019-06-15T05:42:21.177Z,99.07
2019-06-15T05:43:21.253Z,99.69
2019-06-15T05:44:21.288Z,99.69
2019-06-15T05:45:21.321Z,99.21
2019-06-15T05:46:21.372Z,99.21
2019-06-15T05:47:21.423Z,99.40
2019-06-15T05:48:21.452Z,99.50
2019-06-15T05:49:21.489Z,99.59
2019-06-15T05:50:21.551Z,99.88
2019-06-15T05:51:21.595Z,99.99
2019-06-15T05:52:21.615Z,99.99
2019-06-15T05:53:21.673Z,99.99
2019-06-15T05:54:21.718Z,99.99
2019-06-15T05:55:21.759Z,99.99
2019-06-15T05:56:21.803Z,99.99
2019-06-15T05:57:22.141Z,99.99
2019-06-15T05:58:21.898Z,99.99
2019-06-15T05:59:21.946Z,99.99
2019-06-15T06:00:22.014Z,99.99
2019-06-15T06:01:22.044Z,99.99
2019-06-15T06:02:24.768Z,99.99
2019-06-15T06:03:22.127Z,99.99
2019-06-15T06:04:22.180Z,99.99
2019-06-15T06:05:22.186Z,99.99
2019-06-15T06:06:22.272Z,99.99
2019-06-15T06:07:22.280Z,99.99
2019-06-15T06:08:22.342Z,99.99
2019-06-15T06:09:22.381Z,99.99
2019-06-15T06:10:22.425Z,99.99
2019-06-15T06:11:22.477Z,99.99
2019-06-15T06:12:22.512Z,99.99
2019-06-15T06:13:22.567Z,99.99
2019-06-15T06:14:22.614Z,99.99
2019-06-15T06:15:22.648Z,99.99
2019-06-15T06:16:22.689Z,99.99
2019-06-15T06:17:22.740Z,99.99
2019-06-15T06:18:22.783Z,99.99
2019-06-15T06:19:22.808Z,99.99
2019-06-15T06:20:22.895Z,99.99
2019-06-15T06:21:22.942Z,99.99
2019-06-15T06:22:22.951Z,99.99
2019-06-15T06:23:22.987Z,99.99
2019-06-15T06:24:23.037Z,99.99
2019-06-15T06:25:23.074Z,99.99
2019-06-15T06:26:23.129Z,99.99
2019-06-15T06:27:35.845Z,99.99
2019-06-15T06:28:23.210Z,99.99
2019-06-15T06:29:23.276Z,99.99
2019-06-15T06:30:23.294Z,99.99
2019-06-15T06:31:23.356Z,99.99
2019-06-15T06:32:23.383Z,99.99
2019-06-15T06:33:23.440Z,99.99
2019-06-15T06:34:23.469Z,99.99
2019-06-15T06:35:23.510Z,99.99
2019-06-15T06:36:23.574Z,99.99
2019-06-15T06:37:23.627Z,99.99
2019-06-15T06:38:23.649Z,99.99
2019-06-15T06:39:23.681Z,99.99
2019-06-15T06:40:23.729Z,99.99
2019-06-15T06:41:23.778Z,99.99
2019-06-15T06:42:23.812Z,99.99
2019-06-15T06:43:23.859Z,99.99
2019-06-15T06:44:23.910Z,99.99
2019-06-15T06:45:23.960Z,99.99
2019-06-15T06:46:23.987Z,99.99
2019-06-15T06:47:24.046Z,99.99
2019-06-15T06:48:24.086Z,99.99
2019-06-15T06:49:24.110Z,99.99
2019-06-15T06:50:24.202Z,99.99
2019-06-15T06:51:24.210Z,99.99
2019-06-15T06:52:24.252Z,99.99
2019-06-15T06:53:24.296Z,99.99
2019-06-15T06:54:24.418Z,99.99
2019-06-15T06:55:24.386Z,99.99
2019-06-15T06:56:24.444Z,99.99
2019-06-15T06:57:24.453Z,99.99
2019-06-15T06:58:24.523Z,99.99
2019-06-15T06:59:24.568Z,99.99
2019-06-15T07:00:24.606Z,99.99
2019-06-15T07:01:24.655Z,99.99
2019-06-15T07:02:24.686Z,99.99
2019-06-15T07:03:24.760Z,99.99
2019-06-15T07:04:24.798Z,99.99
2019-06-15T07:05:24.816Z,99.99
2019-06-15T07:06:24.875Z,99.99
2019-06-15T07:07:24.944Z,99.99
2019-06-15T07:08:24.943Z,99.99
2019-06-15T07:09:25.002Z,99.99
2019-06-15T07:10:25.027Z,99.99
2019-06-15T07:11:25.091Z,99.99
2019-06-15T07:12:25.105Z,99.99
2019-06-15T07:13:25.206Z,99.99
2019-06-15T07:14:25.243Z,99.99
2019-06-15T07:15:25.252Z,99.99
2019-06-15T07:16:25.273Z,99.99
2019-06-15T07:17:25.357Z,99.99
2019-06-15T07:18:25.391Z,99.99
2019-06-15T07:19:25.414Z,99.99
2019-06-15T07:20:25.481Z,99.99
2019-06-15T07:21:25.504Z,99.99
2019-06-15T07:22:25.549Z,99.99
2019-06-15T07:23:25.635Z,99.99
2019-06-15T07:24:25.677Z,99.99
2019-06-15T07:25:25.696Z,99.99
2019-06-15T07:26:25.740Z,99.99
2019-06-15T07:27:25.756Z,99.99
2019-06-15T07:28:25.824Z,99.99
2019-06-15T07:29:25.845Z,99.99
2019-06-15T07:30:25.891Z,99.99
2019-06-15T07:31:25.931Z,99.99
2019-06-15T07:32:25.993Z,99.99
2019-06-15T07:33:26.031Z,99.99
2019-06-15T07:34:26.099Z,99.99
2019-06-15T07:35:26.115Z,99.99
2019-06-15T07:36:26.157Z,99.99
2019-06-15T07:37:26.227Z,99.99
2019-06-15T07:38:26.255Z,99.99
2019-06-15T07:39:26.311Z,99.99
2019-06-15T07:40:26.356Z,99.99
2019-06-15T07:41:26.380Z,99.99
2019-06-15T07:42:26.430Z,99.99
2019-06-15T07:43:26.467Z,99.99
2019-06-15T07:44:26.508Z,99.99
2019-06-15T07:45:26.539Z,99.99
2019-06-15T07:46:26.609Z,99.99
2019-06-15T07:47:26.643Z,99.99
2019-06-15T07:48:26.706Z,99.99
2019-06-15T07:49:26.734Z,99.99
2019-06-15T07:50:26.754Z,99.99
2019-06-15T07:51:26.809Z,99.99
2019-06-15T07:52:26.849Z,99.99
2019-06-15T07:53:26.881Z,99.99
2019-06-15T07:54:26.916Z,99.99
2019-06-15T07:55:26.993Z,99.99
2019-06-15T07:56:27.067Z,99.99
2019-06-15T07:57:27.080Z,99.99
2019-06-15T07:58:27.095Z,99.99
2019-06-15T07:59:27.157Z,99.99
2019-06-15T08:00:27.181Z,99.99
2019-06-15T08:01:27.229Z,99.99
2019-06-15T08:02:27.274Z,99.99
2019-06-15T08:03:27.394Z,99.99
2019-06-15T08:04:27.361Z,99.99
2019-06-15T08:05:27.410Z,99.99
2019-06-15T08:06:27.480Z,99.99
2019-06-15T08:07:27.522Z,99.99
2019-06-15T08:08:27.536Z,99.99
2019-06-15T08:09:27.601Z,99.99
2019-06-15T08:10:27.622Z,99.99
2019-06-15T08:11:27.679Z,99.99
2019-06-15T08:12:27.719Z,99.99
2019-06-15T08:13:27.761Z,99.99
2019-06-15T08:14:27.808Z,99.99
2019-06-15T08:15:27.871Z,99.99
2019-06-15T08:16:27.894Z,99.99
2019-06-15T08:17:27.923Z,99.99
2019-06-15T08:18:27.969Z,99.99
2019-06-15T08:19:27.994Z,99.99
2019-06-15T08:20:28.084Z,99.99
2019-06-15T08:21:28.094Z,99.99
2019-06-15T08:22:28.166Z,99.99
2019-06-15T08:23:28.202Z,99.99
2019-06-15T08:24:28.211Z,99.99
2019-06-15T08:25:28.276Z,99.99
2019-06-15T08:26:28.311Z,99.99
2019-06-15T08:27:28.354Z,99.99
2019-06-15T08:28:39.868Z,99.99
2019-06-15T08:29:28.431Z,99.99
2019-06-15T08:30:28.485Z,99.99
2019-06-15T08:31:28.539Z,99.99
2019-06-15T08:32:28.614Z,99.99
2019-06-15T08:33:28.590Z,99.99
2019-06-15T08:34:28.662Z,99.99
2019-06-15T08:35:28.687Z,99.99
2019-06-15T08:36:28.745Z,99.99
2019-06-15T08:37:28.779Z,99.99
2019-06-15T08:38:28.821Z,99.99
2019-06-15T08:39:28.876Z,99.99
2019-06-15T08:40:28.903Z,99.99
2019-06-15T08:41:28.930Z,99.99
2019-06-15T08:42:28.989Z,99.99
2019-06-15T08:43:29.020Z,99.99
2019-06-15T08:44:29.071Z,99.99
2019-06-15T08:45:29.113Z,99.99
2019-06-15T08:46:29.178Z,99.99
2019-06-15T08:47:29.195Z,99.99
2019-06-15T08:48:29.247Z,99.99
2019-06-15T08:49:29.306Z,99.99
2019-06-15T08:50:29.349Z,99.99
2019-06-15T08:51:29.424Z,99.99
2019-06-15T08:52:29.413Z,99.99
2019-06-15T08:53:29.458Z,99.99
2019-06-15T08:54:29.509Z,99.99
2019-06-15T08:55:29.532Z,99.99
2019-06-15T08:56:29.614Z,99.99
2019-06-15T08:57:29.657Z,99.99
2019-06-15T08:58:29.689Z,99.99
2019-06-15T08:59:29.731Z,99.99
2019-06-15T09:00:29.774Z,99.99
2019-06-15T09:01:29.804Z,99.99
2019-06-15T09:02:29.856Z,99.99
2019-06-15T09:03:29.939Z,99.99
2019-06-15T09:04:29.939Z,99.99
2019-06-15T09:05:29.997Z,99.99
2019-06-15T09:06:30.023Z,99.99
2019-06-15T09:07:30.063Z,99.99
2019-06-15T09:08:30.104Z,99.99
2019-06-15T09:09:30.148Z,99.99
2019-06-15T09:10:30.193Z,99.99
2019-06-15T09:11:30.233Z,99.99
2019-06-15T09:12:30.263Z,99.99
2019-06-15T09:13:30.298Z,99.99
2019-06-15T09:14:30.353Z,99.99
2019-06-15T09:15:30.405Z,99.99
2019-06-15T09:16:30.498Z,99.99
2019-06-15T09:17:30.473Z,99.99
2019-06-15T09:18:30.530Z,99.99
2019-06-15T09:19:30.562Z,99.99
2019-06-15T09:20:30.613Z,99.99
2019-06-15T09:21:30.645Z,99.99
2019-06-15T09:22:30.680Z,99.99
2019-06-15T09:23:30.749Z,99.99
2019-06-15T09:24:30.795Z,99.99
2019-06-15T09:25:30.835Z,99.99
2019-06-15T09:26:30.869Z,99.99
2019-06-15T09:27:30.915Z,99.99
2019-06-15T09:28:30.949Z,99.99
2019-06-15T09:29:30.998Z,99.99
2019-06-15T09:30:31.017Z,99.99
2019-06-15T09:31:31.067Z,99.99
2019-06-15T09:32:31.135Z,99.99
2019-06-15T09:33:31.187Z,99.99
2019-06-15T09:34:31.181Z,99.99
2019-06-15T09:35:31.227Z,99.99
2019-06-15T09:36:31.301Z,99.99
2019-06-15T09:37:31.345Z,99.99
2019-06-15T09:38:31.401Z,99.99
2019-06-15T09:39:31.400Z,99.99
2019-06-15T09:40:31.475Z,99.99
2019-06-15T09:41:31.504Z,99.99
2019-06-15T09:42:31.703Z,99.99
2019-06-15T09:43:31.580Z,99.99
2019-06-15T09:44:31.611Z,99.99
2019-06-15T09:45:33.011Z,99.99
2019-06-15T09:46:31.701Z,99.99
2019-06-15T09:47:31.723Z,99.99
2019-06-15T09:48:31.777Z,99.99
2019-06-15T09:49:31.833Z,99.99
2019-06-15T09:50:31.891Z,99.99
2019-06-15T09:51:31.970Z,99.99
2019-06-15T09:52:31.947Z,99.99
2019-06-15T09:53:32.037Z,99.99
2019-06-15T09:54:32.045Z,99.99
2019-06-15T09:55:32.102Z,99.99
2019-06-15T09:56:32.104Z,99.99
2019-06-15T09:57:32.187Z,99.99
2019-06-15T09:58:32.200Z,99.99
2019-06-15T09:59:32.259Z,99.99
2019-06-15T10:00:32.288Z,99.99
2019-06-15T10:01:32.343Z,99.99
2019-06-15T10:02:32.410Z,99.99
2019-06-15T10:03:32.444Z,99.99
2019-06-15T10:04:32.478Z,99.99
2019-06-15T10:05:32.511Z,99.99
2019-06-15T10:06:32.565Z,99.99
2019-06-15T10:07:32.581Z,99.99
2019-06-15T10:08:32.642Z,99.99
2019-06-15T10:09:32.696Z,99.99
2019-06-15T10:10:32.737Z,99.99
2019-06-15T10:11:32.777Z,99.99
2019-06-15T10:12:32.815Z,99.99
2019-06-15T10:13:32.865Z,99.99
2019-06-15T10:14:32.880Z,99.99
2019-06-15T10:15:32.926Z,99.99
2019-06-15T10:16:32.974Z,99.99
2019-06-15T10:17:33.037Z,99.99
2019-06-15T10:18:33.066Z,99.99
2019-06-15T10:19:33.108Z,99.99
2019-06-15T10:20:33.154Z,99.99
2019-06-15T10:21:33.195Z,99.99
2019-06-15T10:22:33.272Z,99.99
2019-06-15T10:23:33.270Z,99.99
2019-06-15T10:24:33.317Z,99.99
2019-06-15T10:25:33.345Z,99.99
2019-06-15T10:26:33.389Z,99.99
2019-06-15T10:27:33.455Z,99.99
2019-06-15T10:28:33.504Z,99.99
2019-06-15T10:29:41.978Z,99.99
2019-06-15T10:30:33.561Z,99.99
2019-06-15T10:31:33.660Z,99.99
2019-06-15T10:32:33.636Z,99.99
2019-06-15T10:33:33.726Z,99.99
2019-06-15T10:34:33.752Z,99.99
2019-06-15T10:35:33.801Z,99.99
2019-06-15T10:36:33.816Z,99.99
2019-06-15T10:37:33.869Z,99.99
2019-06-15T10:38:33.968Z,99.99
2019-06-15T10:39:33.938Z,99.99
2019-06-15T10:40:33.999Z,99.99
2019-06-15T10:41:34.048Z,99.99
2019-06-15T10:42:34.113Z,99.99
2019-06-15T10:43:34.139Z,99.99
2019-06-15T10:44:34.160Z,99.99
2019-06-15T10:45:34.203Z,99.99
2019-06-15T10:46:34.260Z,99.99
2019-06-15T10:47:34.281Z,99.99
2019-06-15T10:48:34.343Z,99.99
2019-06-15T10:49:34.386Z,99.99
2019-06-15T10:50:34.461Z,99.99
2019-06-15T10:51:34.452Z,99.99
2019-06-15T10:52:34.492Z,99.99
2019-06-15T10:53:34.550Z,99.99
2019-06-15T10:54:34.603Z,99.99
2019-06-15T10:55:34.635Z,99.99
2019-06-15T10:56:34.680Z,99.99
2019-06-15T10:57:34.723Z,99.99
2019-06-15T10:58:34.793Z,99.99
2019-06-15T10:59:34.816Z,99.99
2019-06-15T11:00:34.897Z,99.99
2019-06-15T11:01:34.907Z,99.99
2019-06-15T11:02:34.959Z,99.99
2019-06-15T11:03:34.988Z,99.99
2019-06-15T11:04:35.044Z,99.99
2019-06-15T11:05:35.113Z,99.99
2019-06-15T11:06:35.151Z,99.99
2019-06-15T11:07:35.187Z,99.89
2019-06-15T11:08:35.212Z,98.30
2019-06-15T11:09:35.258Z,96.99
2019-06-15T11:10:35.341Z,95.54
2019-06-15T11:11:35.363Z,94.62
2019-06-15T11:12:45.717Z,93.55
2019-06-15T11:13:35.456Z,93.12
2019-06-15T11:14:35.516Z,91.61
2019-06-15T11:15:35.570Z,90.55
2019-06-15T11:16:35.609Z,90.74
2019-06-15T11:17:35.654Z,91.08
2019-06-15T11:18:35.681Z,89.14
2019-06-15T11:19:35.785Z,87.88
2019-06-15T11:20:35.796Z,88.85
2019-06-15T11:21:35.828Z,88.85
2019-06-15T11:22:35.887Z,87.49
2019-06-15T11:23:35.955Z,86.82
2019-06-15T11:24:35.983Z,87.88
2019-06-15T11:25:36.022Z,87.24
2019-06-15T11:26:36.170Z,86.08
2019-06-15T11:27:36.131Z,84.92
2019-06-15T11:28:36.196Z,85.25
2019-06-15T11:29:36.252Z,84.96
2019-06-15T11:30:36.313Z,84.09
2019-06-15T11:31:36.339Z,83.89
2019-06-15T11:32:36.404Z,83.45
2019-06-15T11:33:36.447Z,82.97
2019-06-15T11:34:36.508Z,82.87
2019-06-15T11:35:36.539Z,82.87
2019-06-15T11:36:36.590Z,82.90
2019-06-15T11:37:36.646Z,81.84
2019-06-15T11:38:36.677Z,81.65
2019-06-15T11:39:36.765Z,82.32
2019-06-15T11:40:36.786Z,82.13
2019-06-15T11:41:36.862Z,81.65
2019-06-15T11:42:36.880Z,81.45
2019-06-15T11:43:36.939Z,81.35
2019-06-15T11:44:37.069Z,81.60
2019-06-15T11:45:37.047Z,81.99
2019-06-15T11:46:37.099Z,82.38
2019-06-15T11:47:37.172Z,83.02
2019-06-15T11:48:37.200Z,83.12
2019-06-15T11:49:37.231Z,83.40
2019-06-15T11:50:37.297Z,83.74
2019-06-15T11:51:37.353Z,81.70
2019-06-15T11:52:37.400Z,81.65
2019-06-15T11:53:37.482Z,81.35
2019-06-15T11:54:37.535Z,81.45
2019-06-15T11:55:39.803Z,82.23
2019-06-15T11:56:37.604Z,81.68
2019-06-15T11:57:37.664Z,81.20
2019-06-15T11:58:37.692Z,80.32
2019-06-15T11:59:37.768Z,80.36
2019-06-15T12:00:37.830Z,80.85
2019-06-15T12:01:37.882Z,79.97
2019-06-15T12:02:37.919Z,80.62
2019-06-15T12:03:38.007Z,80.42
2019-06-15T12:04:38.017Z,81.20
2019-06-15T12:05:38.073Z,80.52
2019-06-15T12:06:38.127Z,80.87
2019-06-15T12:07:38.181Z,80.87
2019-06-15T12:08:38.240Z,82.28
2019-06-15T12:09:38.291Z,82.73
2019-06-15T12:10:38.323Z,82.92
2019-06-15T12:11:38.390Z,82.82
2019-06-15T12:12:38.434Z,82.97
2019-06-15T12:13:38.488Z,82.57
2019-06-15T12:14:38.527Z,83.06
2019-06-15T12:15:38.578Z,82.63
2019-06-15T12:16:38.631Z,82.44
2019-06-15T12:17:38.705Z,82.63
2019-06-15T12:18:38.785Z,83.50
2019-06-15T12:19:38.795Z,83.89
2019-06-15T12:20:39.177Z,82.92
2019-06-15T12:21:38.894Z,82.92
2019-06-15T12:22:38.933Z,83.99
2019-06-15T12:23:38.986Z,84.19
2019-06-15T12:24:39.044Z,84.42
2019-06-15T12:25:39.108Z,83.54
2019-06-15T12:26:39.161Z,82.37
2019-06-15T12:27:39.212Z,81.34
2019-06-15T12:28:39.233Z,79.63
2019-06-15T12:29:39.316Z,78.36
2019-06-15T12:30:46.545Z,78.07
2019-06-15T12:31:39.442Z,78.17
2019-06-15T12:32:39.451Z,79.20
2019-06-15T12:33:39.513Z,79.49
2019-06-15T12:34:39.583Z,79.04
2019-06-15T12:35:39.628Z,78.17
2019-06-15T12:36:39.709Z,78.13
2019-06-15T12:37:39.751Z,78.46
2019-06-15T12:38:39.812Z,78.69
2019-06-15T12:39:41.774Z,78.73
2019-06-15T12:40:39.891Z,75.62
2019-06-15T12:41:39.918Z,75.52
2019-06-15T12:42:40.015Z,75.26
2019-06-15T12:43:40.035Z,75.26
2019-06-15T12:44:40.097Z,75.26
2019-06-15T12:45:40.147Z,75.07
2019-06-15T12:46:40.230Z,74.04
2019-06-15T12:47:40.246Z,74.78
2019-06-15T12:48:40.304Z,74.72
2019-06-15T12:49:40.369Z,74.91
2019-06-15T12:50:40.408Z,75.46
2019-06-15T12:51:40.921Z,74.58
2019-06-15T12:52:40.505Z,75.26